Capitol Logistics 265


PANC
Ted Stevens Anchorage International Airport
Anchorage, Alaska, US
KORD
Chicago O'Hare International Airport
Chicago, Illinois, US

Route Details

Aircraft Information
Primary: Boeing 747-400BCF
Backup: Boeing 777-200LRF
Route Data
Distance: 2470nm
Sched. Duration: 5h 20m
Avg. Duration: 5h 28m (+8m)
Times Flown: 4
Recm'd Route: TED YESKA NCA13 YQD J596 YWG GEP ZZIPR FYTTE5
Planned Altitude: 35,000ft
Origin Wx: PANC 290353Z 01011KT 10SM FEW060 SCT090 BKN130 BKN200 19/06 A2995 RMK AO2 SLP142 VIRGA NW-NE T01940061
Dest. Wx: KORD 290351Z 00000KT 10SM BKN017 BKN029 OVC100 19/16 A2986 RMK AO2 SLP107 T01940161 $
Notes:

Financial History
Total Freight: 737,026lbs
Average Load: 184,257lbs/flt
Fuel Used: 439,958lbs
Avg. Fuel Used: 109,990lbs/flt
Fuel Expense: $545,548
Avg. Fuel Expense: $136,387
Avg. Fuel Cost: $1.24/lbs
Total Gross Income: $1,451,941
Pilot Pay: $676
Total Expenses: $157,018
Total Revenue: $745,004
Average Revenue: $362,985.30